Markham, Virginia
Current Conditions -  °F | °C
As of 2:55 AM on Thursday 23 Oct 2014 (Local Time) from KFRR Reporting Station
Scattered Clouds Scattered Clouds  
Wind Chill: 50°   Ceiling: Unl
Heat Index: 50°   Visibility: 10mi
Dew Point: 41°   Wind: 9mph
Humidity: 71%   Direction: 300°WNW
Pressure: 29.97"   Gusts: 20mph
Location:  38.9°N, 78°W
Report Text: KFRR 230655Z AUTO 30008G17KT 10SM SCT029 10/05 A2997 RMK AO1
Loading
Personal Weather Stations






























Interactive Weather Map
Tropical Storm Tracking
New forecast layout! Learn more

10-Day Weather Forecast

Advertisements
Track Severe Weather on mobile